createdAt,value
2023-04-15T00:01:12.285Z,5.72
2023-04-15T00:03:39.938Z,5.78
2023-04-15T00:06:07.836Z,5.75
2023-04-15T00:08:34.861Z,5.70
2023-04-15T00:11:05.755Z,5.70
2023-04-15T00:13:34.307Z,5.66
2023-04-15T00:16:01.786Z,5.71
2023-04-15T00:18:29.930Z,5.75
2023-04-15T00:20:57.185Z,5.71
2023-04-15T00:23:24.439Z,5.70
2023-04-15T00:25:52.096Z,5.75
2023-04-15T00:28:19.305Z,5.62
2023-04-15T00:30:46.529Z,5.44
2023-04-15T00:33:14.179Z,5.54
2023-04-15T00:35:41.580Z,5.49
2023-04-15T00:38:09.778Z,5.51
2023-04-15T00:40:37.799Z,5.53
2023-04-15T00:43:05.753Z,5.50
2023-04-15T00:45:33.586Z,5.45
2023-04-15T00:48:00.928Z,5.55
2023-04-15T00:50:28.154Z,5.61
2023-04-15T00:52:55.530Z,5.54
2023-04-15T00:55:22.727Z,5.48
2023-04-15T00:57:50.827Z,5.37
2023-04-15T01:00:18.274Z,5.41
2023-04-15T01:02:47.481Z,5.32
2023-04-15T01:05:17.459Z,5.34
2023-04-15T01:07:44.543Z,5.33
2023-04-15T01:10:11.979Z,5.28
2023-04-15T01:12:39.819Z,5.34
2023-04-15T01:15:08.277Z,5.36
2023-04-15T01:17:35.612Z,5.37
2023-04-15T01:20:03.176Z,5.32
2023-04-15T01:22:31.770Z,5.34
2023-04-15T01:25:09.853Z,5.32
2023-04-15T01:27:42.521Z,5.40
2023-04-15T01:30:10.766Z,5.33
2023-04-15T01:32:38.301Z,5.41
2023-04-15T01:35:24.508Z,5.25
2023-04-15T01:37:52.670Z,5.39
2023-04-15T01:40:21.524Z,5.34
2023-04-15T01:42:49.943Z,5.28
2023-04-15T01:45:18.410Z,5.18
2023-04-15T01:47:46.671Z,5.23
2023-04-15T01:50:15.615Z,5.16
2023-04-15T01:52:43.940Z,5.12
2023-04-15T01:55:12.634Z,5.19
2023-04-15T01:57:41.511Z,5.28
2023-04-15T02:00:10.208Z,5.21
2023-04-15T02:02:44.929Z,5.23
2023-04-15T02:05:13.435Z,5.25
2023-04-15T02:07:43.732Z,5.23
2023-04-15T02:10:13.712Z,5.14
2023-04-15T02:12:42.232Z,5.27
2023-04-15T02:15:10.921Z,5.30
2023-04-15T02:17:39.355Z,5.32
2023-04-15T02:20:10.827Z,5.15
2023-04-15T02:22:39.039Z,5.29
2023-04-15T02:25:09.302Z,5.34
2023-04-15T02:27:38.346Z,5.29
2023-04-15T02:30:07.544Z,5.21
2023-04-15T02:32:38.274Z,5.15
2023-04-15T02:35:09.034Z,5.18
2023-04-15T02:37:43.821Z,5.23
2023-04-15T02:40:13.566Z,5.25
2023-04-15T02:42:42.791Z,5.16
2023-04-15T02:45:13.989Z,5.17
2023-04-15T02:47:44.046Z,5.18
2023-04-15T02:50:13.680Z,5.14
2023-04-15T02:52:44.583Z,5.05
2023-04-15T02:55:13.485Z,5.09
2023-04-15T02:57:41.978Z,5.13
2023-04-15T03:00:12.483Z,5.25
2023-04-15T03:02:46.988Z,5.19
2023-04-15T03:05:15.682Z,5.08
2023-04-15T03:07:50.410Z,5.11
2023-04-15T03:10:19.682Z,5.18
2023-04-15T03:12:48.876Z,5.33
2023-04-15T03:15:22.635Z,5.46
2023-04-15T03:17:53.682Z,5.56
2023-04-15T03:20:22.096Z,5.57
2023-04-15T03:22:50.756Z,5.50
2023-04-15T03:25:21.115Z,5.29
2023-04-15T03:27:49.405Z,5.34
2023-04-15T03:30:18.513Z,5.27
2023-04-15T03:32:47.498Z,5.22
2023-04-15T03:35:16.528Z,5.27
2023-04-15T03:37:44.871Z,5.09
2023-04-15T03:40:13.369Z,5.22
2023-04-15T03:42:41.657Z,5.24
2023-04-15T03:45:10.431Z,5.20
2023-04-15T03:47:38.857Z,5.19
2023-04-15T03:50:07.692Z,5.11
2023-04-15T03:52:36.001Z,5.19
2023-04-15T03:55:04.519Z,4.98
2023-04-15T03:57:33.513Z,5.17
2023-04-15T04:00:01.737Z,5.24
2023-04-15T04:02:40.284Z,5.23
2023-04-15T04:05:09.309Z,5.27
2023-04-15T04:07:37.610Z,5.34
2023-04-15T04:10:06.626Z,5.47
2023-04-15T04:12:34.779Z,5.41
2023-04-15T04:15:03.293Z,5.27
2023-04-15T04:17:31.661Z,5.27
2023-04-15T04:20:00.007Z,5.30
2023-04-15T04:22:28.505Z,5.26
2023-04-15T04:24:57.155Z,5.42
2023-04-15T04:27:26.375Z,5.55
2023-04-15T04:29:54.830Z,5.82
2023-04-15T04:32:23.057Z,5.85
2023-04-15T04:34:51.520Z,5.88
2023-04-15T04:37:19.827Z,5.73
2023-04-15T04:39:48.120Z,5.74
2023-04-15T04:42:16.898Z,5.72
2023-04-15T04:44:45.255Z,5.77
2023-04-15T04:47:14.202Z,5.88
2023-04-15T04:49:42.441Z,5.88
2023-04-15T04:52:11.807Z,5.88
2023-04-15T04:54:40.089Z,5.91
2023-04-15T04:57:08.443Z,5.93
2023-04-15T04:59:36.741Z,6.04
2023-04-15T05:02:05.495Z,5.97
2023-04-15T05:04:34.534Z,6.04
2023-04-15T05:07:02.850Z,5.94
2023-04-15T05:09:32.684Z,5.96
2023-04-15T05:12:01.530Z,5.99
2023-04-15T05:14:29.976Z,6.01
2023-04-15T05:16:58.550Z,6.05
2023-04-15T05:19:27.265Z,6.09
2023-04-15T05:21:55.706Z,6.18
2023-04-15T05:24:24.153Z,6.22
2023-04-15T05:26:52.476Z,6.16
2023-04-15T05:29:21.000Z,6.12
2023-04-15T05:31:49.914Z,6.21
2023-04-15T05:34:18.228Z,6.35
2023-04-15T05:36:46.504Z,6.23
2023-04-15T05:39:14.794Z,6.39
2023-04-15T05:41:43.096Z,6.43
2023-04-15T05:44:11.777Z,6.36
2023-04-15T05:46:40.191Z,6.26
2023-04-15T05:49:08.574Z,6.35
2023-04-15T05:51:37.184Z,6.40
2023-04-15T05:54:05.985Z,6.42
2023-04-15T05:56:34.287Z,6.51
2023-04-15T05:59:02.648Z,6.54
2023-04-15T06:01:31.275Z,6.53
2023-04-15T06:03:59.500Z,6.73
2023-04-15T06:06:27.916Z,6.78
2023-04-15T06:08:56.192Z,6.74
2023-04-15T06:11:25.394Z,6.64
2023-04-15T06:13:53.615Z,6.52
2023-04-15T06:16:23.833Z,6.40
2023-04-15T06:18:52.158Z,6.23
2023-04-15T06:21:20.667Z,6.14
2023-04-15T06:23:48.983Z,6.17
2023-04-15T06:26:17.334Z,6.33
2023-04-15T06:28:46.042Z,6.35
2023-04-15T06:31:14.834Z,6.38
2023-04-15T06:33:43.125Z,6.30
2023-04-15T06:36:11.458Z,6.42
2023-04-15T06:38:39.884Z,6.35
2023-04-15T06:41:08.328Z,6.30
2023-04-15T06:43:36.729Z,6.51
2023-04-15T06:46:05.278Z,6.54
2023-04-15T06:48:33.528Z,6.66
2023-04-15T06:51:02.000Z,6.63
2023-04-15T06:53:30.390Z,6.58
2023-04-15T06:55:58.623Z,6.63
2023-04-15T06:58:26.978Z,6.79
2023-04-15T07:00:55.394Z,6.79
2023-04-15T07:03:23.676Z,6.77
2023-04-15T07:05:52.165Z,6.84
2023-04-15T07:08:21.419Z,6.91
2023-04-15T07:10:49.762Z,6.81
2023-04-15T07:13:17.956Z,7.09
2023-04-15T07:15:46.588Z,7.03
2023-04-15T07:18:14.857Z,7.19
2023-04-15T07:20:43.767Z,7.17
2023-04-15T07:23:12.246Z,7.25
2023-04-15T07:25:41.295Z,7.34
2023-04-15T07:28:09.512Z,7.20
2023-04-15T07:30:38.489Z,7.42
2023-04-15T07:33:07.314Z,7.53
2023-04-15T07:35:35.742Z,7.37
2023-04-15T07:38:04.173Z,7.36
2023-04-15T07:40:33.281Z,7.44
2023-04-15T07:43:01.830Z,7.56
2023-04-15T07:45:30.439Z,7.63
2023-04-15T07:47:58.791Z,7.80
2023-04-15T07:50:28.762Z,7.79
2023-04-15T07:52:57.466Z,7.76
2023-04-15T07:55:27.204Z,7.72
2023-04-15T07:57:57.346Z,7.66
2023-04-15T08:00:26.962Z,7.56
2023-04-15T08:02:57.649Z,7.58
2023-04-15T08:05:26.568Z,7.71
2023-04-15T08:07:54.966Z,7.97
2023-04-15T08:10:23.499Z,8.07
2023-04-15T08:12:54.403Z,8.14
2023-04-15T08:15:22.694Z,8.11
2023-04-15T08:17:51.304Z,8.05
2023-04-15T08:20:19.942Z,8.12
2023-04-15T08:22:52.756Z,7.81
2023-04-15T08:25:21.488Z,7.60
2023-04-15T08:27:49.869Z,7.52
2023-04-15T08:30:18.817Z,7.64
2023-04-15T08:32:47.643Z,7.64
2023-04-15T08:35:16.450Z,7.29
2023-04-15T08:37:44.737Z,7.32
2023-04-15T08:40:13.757Z,7.37
2023-04-15T08:42:45.896Z,7.49
2023-04-15T08:45:14.665Z,7.49
2023-04-15T08:47:44.800Z,7.37
2023-04-15T08:50:15.433Z,7.45
2023-04-15T08:52:43.884Z,7.47
2023-04-15T08:55:13.817Z,7.52
2023-04-15T08:57:42.146Z,7.52
2023-04-15T09:00:11.095Z,7.59
2023-04-15T09:02:39.878Z,7.74
2023-04-15T09:05:08.832Z,7.94
2023-04-15T09:07:37.404Z,7.86
2023-04-15T09:10:06.739Z,7.94
2023-04-15T09:12:38.263Z,7.86
2023-04-15T09:15:08.977Z,7.82
2023-04-15T09:17:43.970Z,7.91
2023-04-15T09:20:14.124Z,8.20
2023-04-15T09:22:43.902Z,7.76
2023-04-15T09:25:28.048Z,7.81
2023-04-15T09:28:02.011Z,7.86
2023-04-15T09:30:30.651Z,7.93
2023-04-15T09:33:04.238Z,7.88
2023-04-15T09:35:32.600Z,7.77
2023-04-15T09:38:04.186Z,7.73
2023-04-15T09:40:36.409Z,7.96
2023-04-15T09:43:06.248Z,7.93
2023-04-15T09:45:36.014Z,8.04
2023-04-15T09:48:27.170Z,7.94
2023-04-15T09:50:59.359Z,7.73
2023-04-15T09:53:29.839Z,7.86
2023-04-15T09:56:02.640Z,7.85
2023-04-15T09:58:33.708Z,7.72
2023-04-15T10:01:05.136Z,7.76
2023-04-15T10:03:39.390Z,7.66
2023-04-15T10:06:08.248Z,7.61
2023-04-15T10:08:36.594Z,7.62
2023-04-15T10:11:06.280Z,7.69
2023-04-15T10:13:36.566Z,7.84
2023-04-15T10:16:07.167Z,7.73
2023-04-15T10:18:38.434Z,8.02
2023-04-15T10:21:08.868Z,8.02
2023-04-15T10:23:38.725Z,7.86
2023-04-15T10:26:08.547Z,7.98
2023-04-15T10:28:37.220Z,8.02
2023-04-15T10:31:07.392Z,8.00
2023-04-15T10:33:36.398Z,7.93
2023-04-15T10:36:05.330Z,7.93
2023-04-15T10:38:38.281Z,7.96
2023-04-15T10:41:18.740Z,7.75
2023-04-15T10:43:56.242Z,7.64
2023-04-15T10:46:37.775Z,7.61
2023-04-15T10:49:24.489Z,7.78
2023-04-15T10:51:58.220Z,7.85
2023-04-15T10:54:26.415Z,8.16
2023-04-15T10:57:01.891Z,8.30
2023-04-15T10:59:51.082Z,8.16
2023-04-15T11:02:19.654Z,7.96
2023-04-15T11:04:58.818Z,8.00
2023-04-15T11:07:35.148Z,8.12
2023-04-15T11:10:25.663Z,8.34
2023-04-15T11:12:58.220Z,8.25
2023-04-15T11:15:33.269Z,8.29
2023-04-15T11:18:13.567Z,8.21
2023-04-15T11:20:47.335Z,8.04
2023-04-15T11:23:28.957Z,8.25
2023-04-15T11:25:58.200Z,8.27
2023-04-15T11:28:30.994Z,8.30
2023-04-15T11:31:06.056Z,8.39
2023-04-15T11:33:34.561Z,8.41
2023-04-15T11:36:04.324Z,8.32
2023-04-15T11:38:34.517Z,8.48
2023-04-15T11:41:02.811Z,8.46
2023-04-15T11:43:32.637Z,8.47
2023-04-15T11:46:02.561Z,8.36
2023-04-15T11:48:34.351Z,8.29
2023-04-15T11:51:08.159Z,8.23
2023-04-15T11:53:47.400Z,8.10
2023-04-15T11:56:26.476Z,8.22
2023-04-15T11:59:00.929Z,8.17
2023-04-15T12:01:36.959Z,8.22
2023-04-15T12:04:15.883Z,8.23
2023-04-15T12:06:43.618Z,8.14
2023-04-15T12:09:15.551Z,8.15
2023-04-15T12:11:48.401Z,8.24
2023-04-15T12:14:32.650Z,8.15
2023-04-15T12:17:02.984Z,8.42
2023-04-15T12:19:39.671Z,8.36
2023-04-15T12:22:13.046Z,8.57
2023-04-15T12:24:41.449Z,8.41
2023-04-15T12:27:11.542Z,8.50
2023-04-15T12:29:40.931Z,8.39
2023-04-15T12:32:13.000Z,8.30
2023-04-15T12:34:42.644Z,8.09
2023-04-15T12:37:11.993Z,8.06
2023-04-15T12:39:41.636Z,7.94
2023-04-15T12:42:09.733Z,7.84
2023-04-15T12:44:37.717Z,8.04
2023-04-15T12:47:05.526Z,7.96
2023-04-15T12:49:34.547Z,7.95
2023-04-15T12:52:02.935Z,7.96
2023-04-15T12:54:31.880Z,7.89
2023-04-15T12:56:59.767Z,7.84
2023-04-15T12:59:27.260Z,7.69
2023-04-15T13:01:55.656Z,7.84
2023-04-15T13:04:23.440Z,7.83
2023-04-15T13:06:50.899Z,7.87
2023-04-15T13:09:18.160Z,7.88
2023-04-15T13:11:45.468Z,7.80
2023-04-15T13:14:14.083Z,7.77
2023-04-15T13:16:41.707Z,7.83
2023-04-15T13:19:09.146Z,7.85
2023-04-15T13:21:38.549Z,7.89
2023-04-15T13:24:07.480Z,7.81
2023-04-15T13:26:35.158Z,7.85
2023-04-15T13:29:02.359Z,7.88
2023-04-15T13:31:29.596Z,7.78
2023-04-15T13:33:57.930Z,7.70
2023-04-15T13:36:25.306Z,7.75
2023-04-15T13:38:52.429Z,7.97
2023-04-15T13:41:21.411Z,8.03
2023-04-15T13:43:48.591Z,8.04
2023-04-15T13:46:16.334Z,7.98
2023-04-15T13:48:43.741Z,8.03
2023-04-15T13:51:11.156Z,8.11
2023-04-15T13:53:39.600Z,8.18
2023-04-15T13:56:11.013Z,8.21
2023-04-15T13:58:38.454Z,8.36
2023-04-15T14:01:07.030Z,8.59
2023-04-15T14:03:36.945Z,8.77
2023-04-15T14:06:05.745Z,8.51
2023-04-15T14:08:33.497Z,8.39
2023-04-15T14:11:00.904Z,8.30
2023-04-15T14:13:28.179Z,8.23
2023-04-15T14:15:55.589Z,8.20
2023-04-15T14:18:23.066Z,8.15
2023-04-15T14:20:50.193Z,8.29
2023-04-15T14:23:17.264Z,8.20
2023-04-15T14:25:46.711Z,8.49
2023-04-15T14:28:15.947Z,8.79
2023-04-15T14:30:43.276Z,8.70
2023-04-15T14:33:10.807Z,8.75
2023-04-15T14:35:38.224Z,8.95
2023-04-15T14:38:06.268Z,8.80
2023-04-15T14:40:34.106Z,8.76
2023-04-15T14:43:01.377Z,8.84
2023-04-15T14:45:28.708Z,8.80
2023-04-15T14:47:56.299Z,9.00
2023-04-15T14:50:23.506Z,8.94
2023-04-15T14:52:50.635Z,8.77
2023-04-15T14:55:17.996Z,8.80
2023-04-15T14:57:45.081Z,8.68
2023-04-15T15:00:15.799Z,8.78
2023-04-15T15:02:44.012Z,8.82
2023-04-15T15:05:12.225Z,9.00
2023-04-15T15:07:43.103Z,8.97
2023-04-15T15:10:10.635Z,8.87
2023-04-15T15:12:37.773Z,8.85
2023-04-15T15:15:15.814Z,8.88
2023-04-15T15:17:54.450Z,8.76
2023-04-15T15:20:22.087Z,8.91
2023-04-15T15:22:49.540Z,8.87
2023-04-15T15:25:16.800Z,8.93
2023-04-15T15:27:44.373Z,9.15
2023-04-15T15:30:12.861Z,9.24
2023-04-15T15:32:41.165Z,9.35
2023-04-15T15:35:10.231Z,9.35
2023-04-15T15:37:38.225Z,9.25
2023-04-15T15:40:06.057Z,9.18
2023-04-15T15:42:33.892Z,9.04
2023-04-15T15:45:01.301Z,9.03
2023-04-15T15:47:28.458Z,8.81
2023-04-15T15:49:55.723Z,8.58
2023-04-15T15:52:22.882Z,8.58
2023-04-15T15:54:50.194Z,8.58
2023-04-15T15:57:17.289Z,8.49
2023-04-15T15:59:44.833Z,8.65
2023-04-15T16:02:14.140Z,8.92
2023-04-15T16:04:43.351Z,8.86
2023-04-15T16:07:11.847Z,8.74
2023-04-15T16:09:41.109Z,8.70
2023-04-15T16:12:08.591Z,8.88
2023-04-15T16:14:36.558Z,8.70
2023-04-15T16:17:03.736Z,8.70
2023-04-15T16:19:31.249Z,8.73
2023-04-15T16:22:00.174Z,8.75
2023-04-15T16:24:28.393Z,9.03
2023-04-15T16:26:58.771Z,9.20
2023-04-15T16:29:26.628Z,9.49
2023-04-15T16:31:55.116Z,9.54
2023-04-15T16:34:22.170Z,9.73
2023-04-15T16:36:49.465Z,9.85
2023-04-15T16:39:17.131Z,10.07
2023-04-15T16:41:44.228Z,10.13
2023-04-15T16:44:11.336Z,10.03
2023-04-15T16:46:40.764Z,9.94
2023-04-15T16:49:08.170Z,10.01
2023-04-15T16:51:35.437Z,10.16
2023-04-15T16:54:02.559Z,10.37
2023-04-15T16:56:29.729Z,10.21
2023-04-15T16:58:56.890Z,10.10
2023-04-15T17:01:24.064Z,9.87
2023-04-15T17:03:54.026Z,9.61
2023-04-15T17:06:22.599Z,9.70
2023-04-15T17:08:49.793Z,9.81
2023-04-15T17:11:19.641Z,9.82
2023-04-15T17:13:49.106Z,9.96
2023-04-15T17:16:16.627Z,10.05
2023-04-15T17:18:47.608Z,10.18
2023-04-15T17:21:26.305Z,10.24
2023-04-15T17:23:59.758Z,10.27
2023-04-15T17:26:37.171Z,10.39
2023-04-15T17:29:06.131Z,10.57
2023-04-15T17:31:43.801Z,10.63
2023-04-15T17:34:50.240Z,10.56
2023-04-15T17:37:38.099Z,10.59
2023-04-15T17:40:25.094Z,10.71
2023-04-15T17:43:12.087Z,10.46
2023-04-15T17:45:59.658Z,10.39
2023-04-15T17:48:47.519Z,10.52
2023-04-15T17:51:34.462Z,10.51
2023-04-15T17:54:27.566Z,10.51
2023-04-15T17:57:15.039Z,10.40
2023-04-15T18:00:02.430Z,10.21
2023-04-15T18:02:59.530Z,10.19
2023-04-15T18:05:47.108Z,10.11
2023-04-15T18:08:34.267Z,10.02
2023-04-15T18:11:21.331Z,9.93
2023-04-15T18:14:08.343Z,9.76
2023-04-15T18:16:55.547Z,9.84
2023-04-15T18:19:43.701Z,9.82
2023-04-15T18:22:15.791Z,9.78
2023-04-15T18:24:43.135Z,9.82
2023-04-15T18:27:10.605Z,9.84
2023-04-15T18:29:37.942Z,10.04
2023-04-15T18:32:05.430Z,10.17
2023-04-15T18:34:33.664Z,10.14
2023-04-15T18:37:01.574Z,10.25
2023-04-15T18:39:29.476Z,10.04
2023-04-15T18:41:59.638Z,9.98
2023-04-15T18:44:26.942Z,10.02
2023-04-15T18:46:54.436Z,9.80
2023-04-15T18:49:21.786Z,10.13
2023-04-15T18:51:48.928Z,10.20
2023-04-15T18:54:16.191Z,10.15
2023-04-15T18:56:43.350Z,10.09
2023-04-15T18:59:28.526Z,10.06
2023-04-15T19:01:59.909Z,10.16
2023-04-15T19:04:29.341Z,10.27
2023-04-15T19:06:57.131Z,10.29
2023-04-15T19:09:24.303Z,10.33
2023-04-15T19:11:51.459Z,10.45
2023-04-15T19:14:18.709Z,10.44
2023-04-15T19:16:46.802Z,10.44
2023-04-15T19:19:17.333Z,10.46
2023-04-15T19:21:46.793Z,10.40
2023-04-15T19:24:14.265Z,10.27
2023-04-15T19:26:41.333Z,10.12
2023-04-15T19:29:08.593Z,10.25
2023-04-15T19:31:35.785Z,10.25
2023-04-15T19:34:02.840Z,10.26
2023-04-15T19:36:30.577Z,10.27
2023-04-15T19:38:59.204Z,10.16
2023-04-15T19:41:26.755Z,10.06
2023-04-15T19:43:53.875Z,10.04
2023-04-15T19:46:21.498Z,10.13
2023-04-15T19:48:48.631Z,10.17
2023-04-15T19:51:15.980Z,9.97
2023-04-15T19:53:43.708Z,10.09
2023-04-15T19:56:11.091Z,9.97
2023-04-15T19:58:38.566Z,10.10
2023-04-15T20:01:05.920Z,10.14
2023-04-15T20:03:33.292Z,10.08
2023-04-15T20:06:00.758Z,10.19
2023-04-15T20:08:27.963Z,10.13
2023-04-15T20:10:55.332Z,10.33
2023-04-15T20:13:22.337Z,10.38
2023-04-15T20:15:50.233Z,10.14
2023-04-15T20:18:17.863Z,9.85
2023-04-15T20:20:45.052Z,9.87
2023-04-15T20:23:12.387Z,9.69
2023-04-15T20:25:39.709Z,9.67
2023-04-15T20:28:06.868Z,9.57
2023-04-15T20:30:34.352Z,9.34
2023-04-15T20:33:01.760Z,9.49
2023-04-15T20:35:31.187Z,9.49
2023-04-15T20:37:59.889Z,9.58
2023-04-15T20:40:27.059Z,9.35
2023-04-15T20:42:54.466Z,9.44
2023-04-15T20:45:22.270Z,9.53
2023-04-15T20:47:49.591Z,9.75
2023-04-15T20:50:16.710Z,9.69
2023-04-15T20:52:43.822Z,9.56
2023-04-15T20:55:11.060Z,9.45
2023-04-15T20:57:38.256Z,9.55
2023-04-15T21:00:06.292Z,9.49
2023-04-15T21:02:37.092Z,9.43
2023-04-15T21:05:04.596Z,9.29
2023-04-15T21:07:31.910Z,9.51
2023-04-15T21:09:59.183Z,9.59
2023-04-15T21:12:26.441Z,9.56
2023-04-15T21:14:53.575Z,9.58
2023-04-15T21:17:22.789Z,9.65
2023-04-15T21:19:51.072Z,9.90
2023-04-15T21:22:18.481Z,9.90
2023-04-15T21:24:45.590Z,9.68
2023-04-15T21:27:12.642Z,9.81
2023-04-15T21:29:40.608Z,9.55
2023-04-15T21:32:07.966Z,9.50
2023-04-15T21:34:35.137Z,9.53
2023-04-15T21:37:02.482Z,9.46
2023-04-15T21:39:29.651Z,9.49
2023-04-15T21:41:58.009Z,9.57
2023-04-15T21:44:26.181Z,9.59
2023-04-15T21:46:53.393Z,9.70
2023-04-15T21:49:20.794Z,9.56
2023-04-15T21:51:48.414Z,9.58
2023-04-15T21:54:15.808Z,9.61
2023-04-15T21:56:43.214Z,9.65
2023-04-15T21:59:11.222Z,9.77
2023-04-15T22:01:38.473Z,9.76
2023-04-15T22:04:07.555Z,9.70
2023-04-15T22:06:35.058Z,9.67
2023-04-15T22:09:02.192Z,9.62
2023-04-15T22:11:30.953Z,9.66
2023-04-15T22:13:59.470Z,9.85
2023-04-15T22:16:27.328Z,9.80
2023-04-15T22:18:55.396Z,9.61
2023-04-15T22:21:22.936Z,9.71
2023-04-15T22:23:51.257Z,9.70
2023-04-15T22:26:19.001Z,9.72
2023-04-15T22:28:46.100Z,9.86
2023-04-15T22:31:14.976Z,9.89
2023-04-15T22:33:42.157Z,9.75
2023-04-15T22:36:09.622Z,9.63
2023-04-15T22:38:36.926Z,9.71
2023-04-15T22:41:04.051Z,9.57
2023-04-15T22:43:31.126Z,9.53
2023-04-15T22:45:58.380Z,9.46
2023-04-15T22:48:25.637Z,9.28
2023-04-15T22:50:53.084Z,9.32
2023-04-15T22:53:20.246Z,9.45
2023-04-15T22:55:48.464Z,9.71
2023-04-15T22:58:17.264Z,9.59
2023-04-15T23:00:46.234Z,9.58
2023-04-15T23:03:13.606Z,9.63
2023-04-15T23:05:41.366Z,9.52
2023-04-15T23:08:08.758Z,9.59
2023-04-15T23:10:36.312Z,9.46
2023-04-15T23:13:03.610Z,9.57
2023-04-15T23:15:30.937Z,9.57
2023-04-15T23:17:58.195Z,9.77
2023-04-15T23:20:25.428Z,9.94
2023-04-15T23:22:52.558Z,9.77
2023-04-15T23:25:22.488Z,9.79
2023-04-15T23:27:49.748Z,9.84
2023-04-15T23:30:16.928Z,9.98
2023-04-15T23:32:44.098Z,9.88
2023-04-15T23:35:11.384Z,9.94
2023-04-15T23:37:38.586Z,10.04
2023-04-15T23:40:06.869Z,10.05
2023-04-15T23:42:34.057Z,9.99
2023-04-15T23:45:01.308Z,9.96
2023-04-15T23:47:30.812Z,9.69
2023-04-15T23:49:57.983Z,9.77
2023-04-15T23:52:25.205Z,9.58
2023-04-15T23:54:52.412Z,9.47
2023-04-15T23:57:19.575Z,9.71
2023-04-15T23:59:46.808Z,9.61
